sensor_id;sensor_type;location;lat;lon;timestamp;pressure;altitude;pressure_sealevel;temperature;humidity
23899;BME280;20544;50.018;20.010;2023-07-02T00:00:10;97825.52;;;19.14;100.00
23899;BME280;20544;50.018;20.010;2023-07-02T00:03:29;97822.30;;;19.12;100.00
23899;BME280;20544;50.018;20.010;2023-07-02T00:06:46;97830.86;;;19.08;100.00
23899;BME280;20544;50.018;20.010;2023-07-02T00:10:04;97827.09;;;19.04;100.00
23899;BME280;20544;50.018;20.010;2023-07-02T00:13:21;97827.57;;;18.96;100.00
23899;BME280;20544;50.018;20.010;2023-07-02T00:16:41;97832.91;;;18.91;100.00
23899;BME280;20544;50.018;20.010;2023-07-02T00:19:59;97828.55;;;18.85;100.00
23899;BME280;20544;50.018;20.010;2023-07-02T00:23:17;97840.36;;;18.84;100.00
23899;BME280;20544;50.018;20.010;2023-07-02T00:26:34;97827.75;;;18.84;100.00
23899;BME280;20544;50.018;20.010;2023-07-02T00:29:52;97840.09;;;18.85;100.00
23899;BME280;20544;50.018;20.010;2023-07-02T00:33:08;97828.05;;;18.88;100.00
23899;BME280;20544;50.018;20.010;2023-07-02T00:36:25;97823.20;;;18.90;100.00
23899;BME280;20544;50.018;20.010;2023-07-02T00:39:41;97817.03;;;18.89;100.00
23899;BME280;20544;50.018;20.010;2023-07-02T00:42:58;97818.16;;;18.94;100.00
23899;BME280;20544;50.018;20.010;2023-07-02T00:46:16;97817.03;;;18.89;100.00
23899;BME280;20544;50.018;20.010;2023-07-02T00:49:35;97821.28;;;18.85;100.00
23899;BME280;20544;50.018;20.010;2023-07-02T00:52:51;97821.26;;;18.80;100.00
23899;BME280;20544;50.018;20.010;2023-07-02T00:56:09;97808.86;;;18.74;100.00
23899;BME280;20544;50.018;20.010;2023-07-02T00:59:27;97809.39;;;18.71;100.00
23899;BME280;20544;50.018;20.010;2023-07-02T01:02:45;97808.24;;;18.62;100.00
23899;BME280;20544;50.018;20.010;2023-07-02T01:06:10;97814.17;;;18.64;100.00
23899;BME280;20544;50.018;20.010;2023-07-02T01:09:29;97811.72;;;18.57;100.00
23899;BME280;20544;50.018;20.010;2023-07-02T01:12:47;97801.45;;;18.49;100.00
23899;BME280;20544;50.018;20.010;2023-07-02T01:16:05;97811.63;;;18.47;100.00
23899;BME280;20544;50.018;20.010;2023-07-02T01:19:29;97808.70;;;18.48;100.00
23899;BME280;20544;50.018;20.010;2023-07-02T01:22:52;97804.44;;;18.52;100.00
23899;BME280;20544;50.018;20.010;2023-07-02T01:26:10;97809.27;;;18.55;100.00
23899;BME280;20544;50.018;20.010;2023-07-02T01:29:28;97814.64;;;18.55;100.00
23899;BME280;20544;50.018;20.010;2023-07-02T01:32:45;97802.81;;;18.51;100.00
23899;BME280;20544;50.018;20.010;2023-07-02T01:36:02;97798.77;;;18.49;100.00
23899;BME280;20544;50.018;20.010;2023-07-02T01:39:21;97798.77;;;18.49;100.00
23899;BME280;20544;50.018;20.010;2023-07-02T01:42:38;97802.48;;;18.42;100.00
23899;BME280;20544;50.018;20.010;2023-07-02T01:45:56;97800.85;;;18.41;100.00
23899;BME280;20544;50.018;20.010;2023-07-02T01:49:13;97798.99;;;18.42;100.00
23899;BME280;20544;50.018;20.010;2023-07-02T01:52:29;97800.62;;;18.43;100.00
23899;BME280;20544;50.018;20.010;2023-07-02T01:55:46;97792.30;;;18.45;100.00
23899;BME280;20544;50.018;20.010;2023-07-02T01:59:03;97792.56;;;18.43;100.00
23899;BME280;20544;50.018;20.010;2023-07-02T02:02:23;97796.84;;;18.44;100.00
23899;BME280;20544;50.018;20.010;2023-07-02T02:05:39;97791.77;;;18.48;100.00
23899;BME280;20544;50.018;20.010;2023-07-02T02:08:56;97792.63;;;18.53;100.00
23899;BME280;20544;50.018;20.010;2023-07-02T02:12:13;97795.61;;;18.57;100.00
23899;BME280;20544;50.018;20.010;2023-07-02T02:15:30;97793.45;;;18.59;100.00
23899;BME280;20544;50.018;20.010;2023-07-02T02:18:46;97792.10;;;18.56;100.00
23899;BME280;20544;50.018;20.010;2023-07-02T02:22:03;97787.00;;;18.55;100.00
23899;BME280;20544;50.018;20.010;2023-07-02T02:25:20;97789.39;;;18.51;100.00
23899;BME280;20544;50.018;20.010;2023-07-02T02:28:39;97794.22;;;18.49;100.00
23899;BME280;20544;50.018;20.010;2023-07-02T02:31:56;97793.39;;;18.49;100.00
23899;BME280;20544;50.018;20.010;2023-07-02T02:35:13;97790.15;;;18.47;100.00
23899;BME280;20544;50.018;20.010;2023-07-02T02:38:30;97781.56;;;18.45;100.00
23899;BME280;20544;50.018;20.010;2023-07-02T02:41:47;97792.83;;;18.47;100.00
23899;BME280;20544;50.018;20.010;2023-07-02T02:45:05;97795.81;;;18.50;100.00
23899;BME280;20544;50.018;20.010;2023-07-02T02:48:22;97797.14;;;18.48;100.00
23899;BME280;20544;50.018;20.010;2023-07-02T02:51:38;97793.92;;;18.46;100.00
23899;BME280;20544;50.018;20.010;2023-07-02T02:54:55;97789.65;;;18.50;100.00
23899;BME280;20544;50.018;20.010;2023-07-02T02:58:11;97793.66;;;18.47;100.00
23899;BME280;20544;50.018;20.010;2023-07-02T03:01:28;97788.55;;;18.46;100.00
23899;BME280;20544;50.018;20.010;2023-07-02T03:04:44;97787.73;;;18.45;100.00
23899;BME280;20544;50.018;20.010;2023-07-02T03:08:01;97788.86;;;18.49;100.00
23899;BME280;20544;50.018;20.010;2023-07-02T03:11:18;97780.80;;;18.49;100.00
23899;BME280;20544;50.018;20.010;2023-07-02T03:14:35;97783.69;;;18.42;100.00
23899;BME280;20544;50.018;20.010;2023-07-02T03:17:51;97780.41;;;18.35;100.00
23899;BME280;20544;50.018;20.010;2023-07-02T03:21:08;97782.03;;;18.36;100.00
23899;BME280;20544;50.018;20.010;2023-07-02T03:24:24;97779.58;;;18.30;100.00
23899;BME280;20544;50.018;20.010;2023-07-02T03:27:41;97777.09;;;18.23;100.00
23899;BME280;20544;50.018;20.010;2023-07-02T03:30:57;97778.97;;;18.22;100.00
23899;BME280;20544;50.018;20.010;2023-07-02T03:34:15;97778.18;;;18.22;100.00
23899;BME280;20544;50.018;20.010;2023-07-02T03:37:31;97773.88;;;18.21;100.00
23899;BME280;20544;50.018;20.010;2023-07-02T03:40:49;97777.09;;;18.23;100.00
23899;BME280;20544;50.018;20.010;2023-07-02T03:44:06;97777.91;;;18.23;100.00
23899;BME280;20544;50.018;20.010;2023-07-02T03:47:22;97773.91;;;18.26;100.00
23899;BME280;20544;50.018;20.010;2023-07-02T03:50:39;97777.69;;;18.30;100.00
23899;BME280;20544;50.018;20.010;2023-07-02T03:53:56;97786.84;;;18.34;100.00
23899;BME280;20544;50.018;20.010;2023-07-02T03:57:13;97779.88;;;18.33;100.00
23899;BME280;20544;50.018;20.010;2023-07-02T04:00:29;97788.76;;;18.39;100.00
23899;BME280;20544;50.018;20.010;2023-07-02T04:03:49;97794.42;;;18.42;100.00
23899;BME280;20544;50.018;20.010;2023-07-02T04:07:07;97790.15;;;18.47;100.00
23899;BME280;20544;50.018;20.010;2023-07-02T04:10:23;97784.02;;;18.51;100.00
23899;BME280;20544;50.018;20.010;2023-07-02T04:13:40;97788.36;;;18.57;100.00
23899;BME280;20544;50.018;20.010;2023-07-02T04:16:56;97794.58;;;18.63;100.00
23899;BME280;20544;50.018;20.010;2023-07-02T04:20:13;97795.97;;;18.71;100.00
23899;BME280;20544;50.018;20.010;2023-07-02T04:23:30;97806.23;;;18.79;100.00
23899;BME280;20544;50.018;20.010;2023-07-02T04:26:47;97797.65;;;18.82;100.00
23899;BME280;20544;50.018;20.010;2023-07-02T04:30:07;97800.69;;;18.91;100.00
23899;BME280;20544;50.018;20.010;2023-07-02T04:33:24;97799.38;;;18.99;100.00
23899;BME280;20544;50.018;20.010;2023-07-02T04:36:42;97805.06;;;19.07;100.00
23899;BME280;20544;50.018;20.010;2023-07-02T04:40:01;97805.93;;;19.18;100.00
23899;BME280;20544;50.018;20.010;2023-07-02T04:43:21;97801.66;;;19.28;100.00
23899;BME280;20544;50.018;20.010;2023-07-02T04:46:38;97810.30;;;19.40;100.00
23899;BME280;20544;50.018;20.010;2023-07-02T04:49:55;97806.06;;;19.49;100.00
23899;BME280;20544;50.018;20.010;2023-07-02T04:53:12;97811.73;;;19.58;100.00
23899;BME280;20544;50.018;20.010;2023-07-02T04:56:28;97816.06;;;19.69;100.00
23899;BME280;20544;50.018;20.010;2023-07-02T04:59:44;97818.53;;;19.81;100.00
23899;BME280;20544;50.018;20.010;2023-07-02T05:03:01;97815.33;;;19.95;100.00
23899;BME280;20544;50.018;20.010;2023-07-02T05:06:18;97815.09;;;20.07;100.00
23899;BME280;20544;50.018;20.010;2023-07-02T05:09:35;97817.80;;;20.17;100.00
23899;BME280;20544;50.018;20.010;2023-07-02T05:12:51;97822.93;;;20.29;100.00
23899;BME280;20544;50.018;20.010;2023-07-02T05:16:07;97819.95;;;20.41;100.00
23899;BME280;20544;50.018;20.010;2023-07-02T05:19:24;97823.73;;;20.55;100.00
23899;BME280;20544;50.018;20.010;2023-07-02T05:22:41;97832.06;;;20.69;100.00
23899;BME280;20544;50.018;20.010;2023-07-02T05:25:57;97829.37;;;20.84;100.00
23899;BME280;20544;50.018;20.010;2023-07-02T05:29:14;97833.13;;;20.99;100.00
23899;BME280;20544;50.018;20.010;2023-07-02T05:32:30;97833.89;;;21.15;100.00
23899;BME280;20544;50.018;20.010;2023-07-02T05:35:48;97836.02;;;21.28;100.00
23899;BME280;20544;50.018;20.010;2023-07-02T05:39:05;97841.08;;;21.40;100.00
23899;BME280;20544;50.018;20.010;2023-07-02T05:42:21;97838.08;;;21.52;100.00
23899;BME280;20544;50.018;20.010;2023-07-02T05:45:38;97842.38;;;21.63;100.00
23899;BME280;20544;50.018;20.010;2023-07-02T05:48:55;97838.00;;;21.73;100.00
23899;BME280;20544;50.018;20.010;2023-07-02T05:52:12;97839.81;;;21.88;100.00
23899;BME280;20544;50.018;20.010;2023-07-02T05:55:28;97847.26;;;22.06;100.00
23899;BME280;20544;50.018;20.010;2023-07-02T05:58:48;97844.23;;;22.13;100.00
23899;BME280;20544;50.018;20.010;2023-07-02T06:02:05;97847.97;;;22.22;100.00
23899;BME280;20544;50.018;20.010;2023-07-02T06:05:22;97846.31;;;22.26;100.00
23899;BME280;20544;50.018;20.010;2023-07-02T06:08:39;97850.88;;;22.31;100.00
23899;BME280;20544;50.018;20.010;2023-07-02T06:11:55;97850.88;;;22.31;100.00
23899;BME280;20544;50.018;20.010;2023-07-02T06:15:12;97857.88;;;22.37;100.00
23899;BME280;20544;50.018;20.010;2023-07-02T06:18:36;97854.33;;;22.37;100.00
23899;BME280;20544;50.018;20.010;2023-07-02T06:21:56;97861.12;;;22.39;100.00
23899;BME280;20544;50.018;20.010;2023-07-02T06:25:15;97852.73;;;22.36;100.00
23899;BME280;20544;50.018;20.010;2023-07-02T06:28:32;97865.94;;;22.42;100.00
23899;BME280;20544;50.018;20.010;2023-07-02T06:31:48;97866.14;;;22.51;100.00
23899;BME280;20544;50.018;20.010;2023-07-02T06:35:05;97856.91;;;22.57;100.00
23899;BME280;20544;50.018;20.010;2023-07-02T06:38:22;97857.88;;;22.72;100.00
23899;BME280;20544;50.018;20.010;2023-07-02T06:41:39;97864.27;;;22.81;100.00
23899;BME280;20544;50.018;20.010;2023-07-02T06:44:57;97869.67;;;22.81;100.00
23899;BME280;20544;50.018;20.010;2023-07-02T06:48:13;97868.72;;;22.96;100.00
23899;BME280;20544;50.018;20.010;2023-07-02T06:51:32;97866.38;;;23.14;100.00
23899;BME280;20544;50.018;20.010;2023-07-02T06:55:09;97857.00;;;23.35;100.00
23899;BME280;20544;50.018;20.010;2023-07-02T06:58:26;97866.14;;;23.39;100.00
23899;BME280;20544;50.018;20.010;2023-07-02T07:01:42;97878.81;;;23.44;100.00
23899;BME280;20544;50.018;20.010;2023-07-02T07:04:59;97871.55;;;23.39;100.00
23899;BME280;20544;50.018;20.010;2023-07-02T07:08:15;97883.98;;;23.40;100.00
23899;BME280;20544;50.018;20.010;2023-07-02T07:11:32;97883.98;;;23.40;100.00
23899;BME280;20544;50.018;20.010;2023-07-02T07:14:48;97882.93;;;23.36;100.00
23899;BME280;20544;50.018;20.010;2023-07-02T07:18:05;97889.40;;;23.40;100.00
23899;BME280;20544;50.018;20.010;2023-07-02T07:21:23;97893.59;;;23.52;100.00
23899;BME280;20544;50.018;20.010;2023-07-02T07:24:39;97897.20;;;23.66;100.00
23899;BME280;20544;50.018;20.010;2023-07-02T07:27:57;97908.34;;;23.84;100.00
23899;BME280;20544;50.018;20.010;2023-07-02T07:31:14;97902.85;;;23.94;100.00
23899;BME280;20544;50.018;20.010;2023-07-02T07:34:31;97909.81;;;24.00;100.00
23899;BME280;20544;50.018;20.010;2023-07-02T07:37:47;97917.27;;;24.09;100.00
23899;BME280;20544;50.018;20.010;2023-07-02T07:41:05;97921.52;;;24.15;100.00
23899;BME280;20544;50.018;20.010;2023-07-02T07:44:21;97914.85;;;24.26;100.00
23899;BME280;20544;50.018;20.010;2023-07-02T07:47:38;97922.70;;;24.28;100.00
23899;BME280;20544;50.018;20.010;2023-07-02T07:50:58;97929.37;;;24.16;100.00
23899;BME280;20544;50.018;20.010;2023-07-02T07:54:17;97916.47;;;24.27;100.00
23899;BME280;20544;50.018;20.010;2023-07-02T07:57:38;97935.50;;;24.22;100.00
23899;BME280;20544;50.018;20.010;2023-07-02T08:00:55;97941.52;;;24.19;100.00
23899;BME280;20544;50.018;20.010;2023-07-02T08:04:14;97942.16;;;24.11;100.00
23899;BME280;20544;50.018;20.010;2023-07-02T08:07:34;97938.70;;;24.05;100.00
23899;BME280;20544;50.018;20.010;2023-07-02T08:10:53;97946.41;;;24.17;100.00
23899;BME280;20544;50.018;20.010;2023-07-02T08:14:09;97946.56;;;24.26;100.00
23899;BME280;20544;50.018;20.010;2023-07-02T08:17:25;97952.66;;;24.36;100.00
23899;BME280;20544;50.018;20.010;2023-07-02T08:20:43;97947.80;;;24.33;100.00
23899;BME280;20544;50.018;20.010;2023-07-02T08:24:00;97943.25;;;24.29;100.00
23899;BME280;20544;50.018;20.010;2023-07-02T08:27:16;97937.86;;;24.67;100.00
23899;BME280;20544;50.018;20.010;2023-07-02T08:30:33;97944.02;;;25.39;100.00
23899;BME280;20544;50.018;20.010;2023-07-02T08:33:49;97951.05;;;25.81;100.00
23899;BME280;20544;50.018;20.010;2023-07-02T08:37:06;97952.97;;;26.09;100.00
23899;BME280;20544;50.018;20.010;2023-07-02T08:40:23;97958.38;;;26.23;100.00
23899;BME280;20544;50.018;20.010;2023-07-02T08:43:40;97949.73;;;25.93;100.00
23899;BME280;20544;50.018;20.010;2023-07-02T08:46:58;97957.41;;;25.91;100.00
23899;BME280;20544;50.018;20.010;2023-07-02T08:50:15;97961.50;;;25.74;100.00
23899;BME280;20544;50.018;20.010;2023-07-02T08:53:32;97956.70;;;25.57;100.00
23899;BME280;20544;50.018;20.010;2023-07-02T08:56:48;97960.40;;;25.14;100.00
23899;BME280;20544;50.018;20.010;2023-07-02T09:00:10;97957.69;;;25.47;100.00
23899;BME280;20544;50.018;20.010;2023-07-02T09:03:29;97960.49;;;26.26;100.00
23899;BME280;20544;50.018;20.010;2023-07-02T09:06:46;97950.84;;;26.20;100.00
23899;BME280;20544;50.018;20.010;2023-07-02T09:10:04;97960.20;;;25.99;100.00
23899;BME280;20544;50.018;20.010;2023-07-02T09:13:21;97951.87;;;26.10;100.00
23899;BME280;20544;50.018;20.010;2023-07-02T09:16:38;97961.00;;;26.14;100.00
23899;BME280;20544;50.018;20.010;2023-07-02T09:19:54;97962.92;;;25.99;100.00
23899;BME280;20544;50.018;20.010;2023-07-02T09:23:13;97958.48;;;26.18;100.00
23899;BME280;20544;50.018;20.010;2023-07-02T09:26:30;97964.71;;;26.18;100.00
23899;BME280;20544;50.018;20.010;2023-07-02T09:29:51;97962.50;;;26.20;100.00
23899;BME280;20544;50.018;20.010;2023-07-02T09:33:09;97965.11;;;26.25;100.00
23899;BME280;20544;50.018;20.010;2023-07-02T09:36:26;97966.84;;;26.21;100.00
23899;BME280;20544;50.018;20.010;2023-07-02T09:39:43;97972.47;;;26.25;100.00
23899;BME280;20544;50.018;20.010;2023-07-02T09:43:01;97982.84;;;26.09;100.00
23899;BME280;20544;50.018;20.010;2023-07-02T09:46:18;97992.39;;;25.92;100.00
23899;BME280;20544;50.018;20.010;2023-07-02T09:49:37;97982.44;;;25.74;100.00
23899;BME280;20544;50.018;20.010;2023-07-02T09:52:56;97990.57;;;25.60;100.00
23899;BME280;20544;50.018;20.010;2023-07-02T09:56:13;97989.69;;;25.31;100.00
23899;BME280;20544;50.018;20.010;2023-07-02T09:59:31;97997.45;;;25.05;100.00
23899;BME280;20544;50.018;20.010;2023-07-02T10:02:51;97994.61;;;24.77;100.00
23899;BME280;20544;50.018;20.010;2023-07-02T10:06:09;97987.39;;;24.73;100.00
23899;BME280;20544;50.018;20.010;2023-07-02T10:09:37;97995.79;;;24.71;100.00
23899;BME280;20544;50.018;20.010;2023-07-02T10:12:54;97991.32;;;24.61;100.00
23899;BME280;20544;50.018;20.010;2023-07-02T10:16:11;97986.25;;;24.54;100.00
23899;BME280;20544;50.018;20.010;2023-07-02T10:19:29;97993.84;;;24.14;100.00
23899;BME280;20544;50.018;20.010;2023-07-02T10:22:47;97981.53;;;24.03;100.00
23899;BME280;20544;50.018;20.010;2023-07-02T10:26:16;97985.55;;;24.05;100.00
23899;BME280;20544;50.018;20.010;2023-07-02T10:29:35;97981.09;;;24.15;100.00
23899;BME280;20544;50.018;20.010;2023-07-02T10:32:52;97985.03;;;24.03;100.00
23899;BME280;20544;50.018;20.010;2023-07-02T10:36:16;97983.48;;;23.97;100.00
23899;BME280;20544;50.018;20.010;2023-07-02T10:39:42;97977.22;;;24.21;100.00
23899;BME280;20544;50.018;20.010;2023-07-02T10:43:01;97986.23;;;24.16;100.00
23899;BME280;20544;50.018;20.010;2023-07-02T10:46:22;97988.88;;;24.21;100.00
23899;BME280;20544;50.018;20.010;2023-07-02T10:49:39;97991.52;;;24.46;100.00
23899;BME280;20544;50.018;20.010;2023-07-02T10:52:56;97983.63;;;24.68;100.00
23899;BME280;20544;50.018;20.010;2023-07-02T10:56:20;97994.20;;;24.70;100.00
23899;BME280;20544;50.018;20.010;2023-07-02T10:59:38;98000.50;;;24.65;100.00
23899;BME280;20544;50.018;20.010;2023-07-02T11:02:55;98005.14;;;24.60;100.00
23899;BME280;20544;50.018;20.010;2023-07-02T11:06:12;97997.31;;;24.58;100.00
23899;BME280;20544;50.018;20.010;2023-07-02T11:09:29;97980.57;;;24.75;100.00
23899;BME280;20544;50.018;20.010;2023-07-02T11:12:45;97974.41;;;24.69;100.00
23899;BME280;20544;50.018;20.010;2023-07-02T11:16:02;97981.58;;;24.79;100.00
23899;BME280;20544;50.018;20.010;2023-07-02T11:19:20;97980.43;;;24.66;100.00
23899;BME280;20544;50.018;20.010;2023-07-02T11:22:37;97980.09;;;24.87;100.00
23899;BME280;20544;50.018;20.010;2023-07-02T11:26:00;97979.34;;;25.00;100.00
23899;BME280;20544;50.018;20.010;2023-07-02T11:29:21;97983.68;;;25.01;100.00
23899;BME280;20544;50.018;20.010;2023-07-02T11:32:50;97977.65;;;25.04;100.00
23899;BME280;20544;50.018;20.010;2023-07-02T11:36:19;97972.92;;;24.96;100.00
23899;BME280;20544;50.018;20.010;2023-07-02T11:39:31;97982.02;;;24.86;100.00
23899;BME280;20544;50.018;20.010;2023-07-02T11:42:47;97977.55;;;24.58;100.00
23899;BME280;20544;50.018;20.010;2023-07-02T11:46:04;97972.40;;;24.56;100.00
23899;BME280;20544;50.018;20.010;2023-07-02T11:49:20;97973.27;;;24.32;100.00
23899;BME280;20544;50.018;20.010;2023-07-02T11:52:37;97973.19;;;24.18;100.00
23899;BME280;20544;50.018;20.010;2023-07-02T11:55:54;97964.73;;;24.25;100.00
23899;BME280;20544;50.018;20.010;2023-07-02T11:59:12;97955.85;;;24.38;100.00
23899;BME280;20544;50.018;20.010;2023-07-02T12:02:29;97954.69;;;24.45;100.00
23899;BME280;20544;50.018;20.010;2023-07-02T12:05:48;97944.06;;;24.48;100.00
23899;BME280;20544;50.018;20.010;2023-07-02T12:09:06;97944.22;;;24.38;100.00
23899;BME280;20544;50.018;20.010;2023-07-02T12:12:24;97953.44;;;24.37;100.00
23899;BME280;20544;50.018;20.010;2023-07-02T12:15:41;97956.45;;;24.35;100.00
23899;BME280;20544;50.018;20.010;2023-07-02T12:18:59;97948.25;;;24.41;100.00
23899;BME280;20544;50.018;20.010;2023-07-02T12:22:17;97951.33;;;24.34;100.00
23899;BME280;20544;50.018;20.010;2023-07-02T12:25:34;97947.66;;;24.25;100.00
23899;BME280;20544;50.018;20.010;2023-07-02T12:28:52;97958.79;;;24.23;100.00
23899;BME280;20544;50.018;20.010;2023-07-02T12:32:09;97948.67;;;24.29;100.00
23899;BME280;20544;50.018;20.010;2023-07-02T12:35:27;97954.05;;;24.34;100.00
23899;BME280;20544;50.018;20.010;2023-07-02T12:38:47;97938.20;;;24.41;100.00
23899;BME280;20544;50.018;20.010;2023-07-02T12:42:05;97923.87;;;24.41;100.00
23899;BME280;20544;50.018;20.010;2023-07-02T12:45:21;97930.52;;;24.48;100.00
23899;BME280;20544;50.018;20.010;2023-07-02T12:48:38;97924.00;;;24.49;100.00
23899;BME280;20544;50.018;20.010;2023-07-02T12:51:59;97932.66;;;24.51;100.00
23899;BME280;20544;50.018;20.010;2023-07-02T12:55:16;97921.08;;;24.46;100.00
23899;BME280;20544;50.018;20.010;2023-07-02T12:58:38;97927.51;;;24.50;100.00
23899;BME280;20544;50.018;20.010;2023-07-02T13:01:56;97919.98;;;24.47;100.00
23899;BME280;20544;50.018;20.010;2023-07-02T13:05:13;97919.38;;;24.50;100.00
23899;BME280;20544;50.018;20.010;2023-07-02T13:08:31;97916.09;;;24.53;100.00
23899;BME280;20544;50.018;20.010;2023-07-02T13:11:48;97926.50;;;24.46;100.00
23899;BME280;20544;50.018;20.010;2023-07-02T13:15:07;97931.04;;;24.50;100.00
23899;BME280;20544;50.018;20.010;2023-07-02T13:18:27;97927.02;;;24.48;100.00
23899;BME280;20544;50.018;20.010;2023-07-02T13:21:45;97929.20;;;24.46;100.00
23899;BME280;20544;50.018;20.010;2023-07-02T13:25:02;97928.03;;;24.52;100.00
23899;BME280;20544;50.018;20.010;2023-07-02T13:28:20;97924.44;;;24.57;100.00
23899;BME280;20544;50.018;20.010;2023-07-02T13:31:38;97936.98;;;24.52;100.00
23899;BME280;20544;50.018;20.010;2023-07-02T13:34:57;97930.44;;;24.53;100.00
23899;BME280;20544;50.018;20.010;2023-07-02T13:38:14;97929.42;;;24.49;100.00
23899;BME280;20544;50.018;20.010;2023-07-02T13:41:34;97930.98;;;24.36;100.00
23899;BME280;20544;50.018;20.010;2023-07-02T13:44:52;97928.77;;;24.38;100.00
23899;BME280;20544;50.018;20.010;2023-07-02T13:48:09;97920.63;;;24.38;100.00
23899;BME280;20544;50.018;20.010;2023-07-02T13:51:26;97921.76;;;24.37;100.00
23899;BME280;20544;50.018;20.010;2023-07-02T13:54:44;97922.33;;;24.34;100.00
23899;BME280;20544;50.018;20.010;2023-07-02T13:58:02;97933.02;;;24.26;100.00
23899;BME280;20544;50.018;20.010;2023-07-02T14:01:18;97964.52;;;23.97;100.00
23899;BME280;20544;50.018;20.010;2023-07-02T14:04:38;97963.30;;;23.84;100.00
23899;BME280;20544;50.018;20.010;2023-07-02T14:07:59;97985.82;;;23.55;100.00
23899;BME280;20544;50.018;20.010;2023-07-02T14:11:26;97997.02;;;23.43;100.00
23899;BME280;20544;50.018;20.010;2023-07-02T14:14:44;97993.64;;;23.28;100.00
23899;BME280;20544;50.018;20.010;2023-07-02T14:18:01;97999.44;;;23.16;100.00
23899;BME280;20544;50.018;20.010;2023-07-02T14:21:18;98004.97;;;22.95;100.00
23899;BME280;20544;50.018;20.010;2023-07-02T14:24:36;98017.78;;;22.79;100.00
23899;BME280;20544;50.018;20.010;2023-07-02T14:27:52;98015.98;;;22.69;100.00
23899;BME280;20544;50.018;20.010;2023-07-02T14:31:09;98021.77;;;22.47;100.00
23899;BME280;20544;50.018;20.010;2023-07-02T14:34:25;98029.05;;;22.46;100.00
23899;BME280;20544;50.018;20.010;2023-07-02T14:37:45;98027.20;;;22.42;100.00
23899;BME280;20544;50.018;20.010;2023-07-02T14:41:13;98035.05;;;22.38;100.00
23899;BME280;20544;50.018;20.010;2023-07-02T14:44:29;98037.77;;;22.23;100.00
23899;BME280;20544;50.018;20.010;2023-07-02T14:47:46;98040.82;;;22.06;100.00
23899;BME280;20544;50.018;20.010;2023-07-02T14:54:18;98051.95;;;21.84;100.00
23899;BME280;20544;50.018;20.010;2023-07-02T14:57:34;98058.16;;;21.74;100.00
23899;BME280;20544;50.018;20.010;2023-07-02T15:00:52;98066.80;;;21.65;100.00
23899;BME280;20544;50.018;20.010;2023-07-02T15:04:10;98062.23;;;21.66;100.00
23899;BME280;20544;50.018;20.010;2023-07-02T15:07:27;98071.63;;;21.53;100.00
23899;BME280;20544;50.018;20.010;2023-07-02T15:10:45;98063.02;;;21.30;100.00
23899;BME280;20544;50.018;20.010;2023-07-02T15:14:04;98053.03;;;21.15;100.00
23899;BME280;20544;50.018;20.010;2023-07-02T15:17:21;98054.91;;;20.94;100.00
23899;BME280;20544;50.018;20.010;2023-07-02T15:20:38;98053.26;;;20.73;100.00
23899;BME280;20544;50.018;20.010;2023-07-02T15:23:54;98059.38;;;20.58;100.00
23899;BME280;20544;50.018;20.010;2023-07-02T15:27:10;98058.53;;;20.47;100.00
23899;BME280;20544;50.018;20.010;2023-07-02T15:30:26;98056.38;;;20.44;100.00
23899;BME280;20544;50.018;20.010;2023-07-02T15:33:43;98063.62;;;20.38;100.00
23899;BME280;20544;50.018;20.010;2023-07-02T15:37:59;98057.39;;;20.32;100.00
23899;BME280;20544;50.018;20.010;2023-07-02T15:41:18;98060.89;;;20.28;100.00
23899;BME280;20544;50.018;20.010;2023-07-02T15:44:35;98068.97;;;20.28;100.00
23899;BME280;20544;50.018;20.010;2023-07-02T15:47:52;98060.91;;;20.33;100.00
23899;BME280;20544;50.018;20.010;2023-07-02T15:54:24;98066.05;;;20.45;100.00
23899;BME280;20544;50.018;20.010;2023-07-02T15:57:41;98062.84;;;20.48;100.00
23899;BME280;20544;50.018;20.010;2023-07-02T16:01:07;98063.41;;;20.50;100.00
23899;BME280;20544;50.018;20.010;2023-07-02T16:04:24;98065.83;;;20.51;100.00
23899;BME280;20544;50.018;20.010;2023-07-02T16:07:41;98063.98;;;20.62;100.00
23899;BME280;20544;50.018;20.010;2023-07-02T16:10:57;98055.96;;;20.78;100.00
23899;BME280;20544;50.018;20.010;2023-07-02T16:14:16;98060.84;;;20.86;100.00
23899;BME280;20544;50.018;20.010;2023-07-02T16:17:33;98069.72;;;20.92;100.00
23899;BME280;20544;50.018;20.010;2023-07-02T16:20:57;98061.64;;;20.97;100.00
23899;BME280;20544;50.018;20.010;2023-07-02T16:24:20;98059.49;;;20.89;100.00
23899;BME280;20544;50.018;20.010;2023-07-02T16:27:39;98070.00;;;20.95;100.00
23899;BME280;20544;50.018;20.010;2023-07-02T16:30:55;98063.54;;;20.96;100.00
23899;BME280;20544;50.018;20.010;2023-07-02T16:34:12;98062.99;;;21.05;100.00
23899;BME280;20544;50.018;20.010;2023-07-02T16:37:29;98070.27;;;20.94;100.00
23899;BME280;20544;50.018;20.010;2023-07-02T16:40:48;98070.28;;;20.99;100.00
23899;BME280;20544;50.018;20.010;2023-07-02T16:44:05;98066.52;;;21.00;100.00
23899;BME280;20544;50.018;20.010;2023-07-02T16:47:21;98070.56;;;21.03;100.00
23899;BME280;20544;50.018;20.010;2023-07-02T16:50:37;98076.73;;;20.98;100.00
23899;BME280;20544;50.018;20.010;2023-07-02T16:53:54;98075.39;;;20.95;100.00
23899;BME280;20544;50.018;20.010;2023-07-02T16:57:11;98081.05;;;20.94;100.00
23899;BME280;20544;50.018;20.010;2023-07-02T17:00:27;98081.86;;;21.05;100.00
23899;BME280;20544;50.018;20.010;2023-07-02T17:03:45;98088.08;;;21.05;100.00
23899;BME280;20544;50.018;20.010;2023-07-02T17:07:02;98090.22;;;21.03;100.00